createdAt,value
2023-04-27T00:01:15.788Z,100.00
2023-04-27T00:03:48.162Z,100.00
2023-04-27T00:06:20.777Z,100.00
2023-04-27T00:08:53.248Z,100.00
2023-04-27T00:11:45.228Z,100.00
2023-04-27T00:14:37.145Z,100.00
2023-04-27T00:17:09.136Z,100.00
2023-04-27T00:19:42.069Z,100.00
2023-04-27T00:22:14.183Z,100.00
2023-04-27T00:24:46.401Z,100.00
2023-04-27T00:27:18.555Z,100.00
2023-04-27T00:29:50.897Z,100.00
2023-04-27T00:32:23.621Z,100.00
2023-04-27T00:34:55.727Z,100.00
2023-04-27T00:37:29.204Z,100.00
2023-04-27T00:39:59.524Z,100.00
2023-04-27T00:42:31.660Z,100.00
2023-04-27T00:45:03.651Z,100.00
2023-04-27T00:47:36.405Z,100.00
2023-04-27T00:50:10.702Z,100.00
2023-04-27T00:52:43.363Z,100.00
2023-04-27T00:55:15.453Z,100.00
2023-04-27T00:57:47.678Z,100.00
2023-04-27T01:00:19.785Z,100.00
2023-04-27T01:02:54.075Z,100.00
2023-04-27T01:05:32.395Z,100.00
2023-04-27T01:08:04.966Z,100.00
2023-04-27T01:10:37.714Z,100.00
2023-04-27T01:13:09.854Z,100.00
2023-04-27T01:15:42.885Z,100.00
2023-04-27T01:18:15.475Z,100.00
2023-04-27T01:20:47.847Z,100.00
2023-04-27T01:23:20.151Z,100.00
2023-04-27T01:25:52.996Z,100.00
2023-04-27T01:28:26.007Z,100.00
2023-04-27T01:30:58.162Z,100.00
2023-04-27T01:33:31.015Z,100.00
2023-04-27T01:36:03.102Z,100.00
2023-04-27T01:38:36.455Z,100.00
2023-04-27T01:41:09.745Z,100.00
2023-04-27T01:43:42.808Z,100.00
2023-04-27T01:46:16.005Z,100.00
2023-04-27T01:48:48.866Z,100.00
2023-04-27T01:51:21.620Z,100.00
2023-04-27T01:53:54.359Z,100.00
2023-04-27T01:56:26.652Z,100.00
2023-04-27T01:59:01.374Z,100.00
2023-04-27T02:01:33.645Z,100.00
2023-04-27T02:04:06.153Z,100.00
2023-04-27T02:06:39.024Z,100.00
2023-04-27T02:09:11.963Z,100.00
2023-04-27T02:11:45.841Z,100.00
2023-04-27T02:14:17.803Z,100.00
2023-04-27T02:16:52.917Z,100.00
2023-04-27T02:19:25.150Z,100.00
2023-04-27T02:21:57.176Z,100.00
2023-04-27T02:24:29.240Z,100.00
2023-04-27T02:27:01.202Z,100.00
2023-04-27T02:29:39.221Z,100.00
2023-04-27T02:32:11.923Z,100.00
2023-04-27T02:34:44.026Z,100.00
2023-04-27T02:37:16.197Z,100.00
2023-04-27T02:39:48.876Z,100.00
2023-04-27T02:42:21.402Z,100.00
2023-04-27T02:44:54.843Z,100.00
2023-04-27T02:47:27.072Z,100.00
2023-04-27T02:49:59.016Z,100.00
2023-04-27T02:52:31.075Z,100.00
2023-04-27T02:55:03.140Z,100.00
2023-04-27T02:57:35.095Z,100.00
2023-04-27T03:00:09.657Z,100.00
2023-04-27T03:02:41.892Z,100.00
2023-04-27T03:05:14.471Z,100.00
2023-04-27T03:07:46.521Z,100.00
2023-04-27T03:10:20.013Z,100.00
2023-04-27T03:12:52.715Z,100.00
2023-04-27T03:15:26.821Z,100.00
2023-04-27T03:17:58.944Z,100.00
2023-04-27T03:20:30.956Z,100.00
2023-04-27T03:23:03.094Z,100.00
2023-04-27T03:25:35.170Z,100.00
2023-04-27T03:28:07.509Z,100.00
2023-04-27T03:30:40.426Z,100.00
2023-04-27T03:33:12.702Z,100.00
2023-04-27T03:35:45.037Z,100.00
2023-04-27T03:38:19.834Z,100.00
2023-04-27T03:40:52.006Z,100.00
2023-04-27T03:43:25.233Z,100.00
2023-04-27T03:45:57.798Z,100.00
2023-04-27T03:48:30.241Z,100.00
2023-04-27T03:51:03.787Z,100.00
2023-04-27T03:53:35.836Z,100.00
2023-04-27T03:56:08.923Z,100.00
2023-04-27T03:58:41.114Z,100.00
2023-04-27T04:01:19.470Z,100.00
2023-04-27T04:03:52.290Z,100.00
2023-04-27T04:06:24.399Z,100.00
2023-04-27T04:08:57.247Z,100.00
2023-04-27T04:11:29.504Z,100.00
2023-04-27T04:14:02.934Z,100.00
2023-04-27T04:16:36.636Z,100.00
2023-04-27T04:19:07.291Z,100.00
2023-04-27T04:21:42.693Z,100.00
2023-04-27T04:24:16.646Z,100.00
2023-04-27T04:26:49.077Z,100.00
2023-04-27T04:29:22.188Z,100.00
2023-04-27T04:31:54.636Z,100.00
2023-04-27T04:34:26.856Z,100.00
2023-04-27T04:36:59.045Z,100.00
2023-04-27T04:39:34.204Z,100.00
2023-04-27T04:42:07.672Z,100.00
2023-04-27T04:44:40.466Z,100.00
2023-04-27T04:47:12.657Z,100.00
2023-04-27T04:49:44.847Z,100.00
2023-04-27T04:52:17.072Z,100.00
2023-04-27T04:54:53.191Z,100.00
2023-04-27T04:57:26.541Z,100.00
2023-04-27T04:59:58.917Z,100.00
2023-04-27T05:02:31.235Z,100.00
2023-04-27T05:05:03.601Z,100.00
2023-04-27T05:07:35.908Z,100.00
2023-04-27T05:10:09.214Z,100.00
2023-04-27T05:12:41.212Z,100.00
2023-04-27T05:15:14.771Z,100.00
2023-04-27T05:17:47.510Z,100.00
2023-04-27T05:20:20.795Z,100.00
2023-04-27T05:22:53.275Z,100.00
2023-04-27T05:25:25.351Z,100.00
2023-04-27T05:27:57.635Z,100.00
2023-04-27T05:30:29.867Z,100.00
2023-04-27T05:33:02.441Z,100.00
2023-04-27T05:35:35.102Z,100.00
2023-04-27T05:38:07.077Z,100.00
2023-04-27T05:40:39.250Z,100.00
2023-04-27T05:43:11.520Z,99.06
2023-04-27T05:45:46.750Z,100.00
2023-04-27T05:48:17.113Z,97.86
2023-04-27T05:50:49.562Z,100.00
2023-04-27T05:53:21.602Z,99.72
2023-04-27T05:55:53.980Z,99.69
2023-04-27T05:58:26.214Z,98.22
2023-04-27T06:00:58.787Z,96.89
2023-04-27T06:03:31.240Z,97.83
2023-04-27T06:06:05.134Z,96.31
2023-04-27T06:08:39.755Z,94.45
2023-04-27T06:11:12.247Z,93.08
2023-04-27T06:13:45.710Z,94.39
2023-04-27T06:16:17.865Z,92.96
2023-04-27T06:18:50.127Z,92.11
2023-04-27T06:21:22.918Z,91.15
2023-04-27T06:23:54.998Z,86.62
2023-04-27T06:26:27.134Z,86.62
2023-04-27T06:28:59.730Z,85.98
2023-04-27T06:31:32.065Z,83.96
2023-04-27T06:34:04.625Z,82.43
2023-04-27T06:36:36.758Z,81.87
2023-04-27T06:39:08.753Z,78.87
2023-04-27T06:41:40.868Z,75.05
2023-04-27T06:44:20.061Z,71.00
2023-04-27T06:46:52.425Z,67.44
2023-04-27T06:49:25.072Z,67.95
2023-04-27T06:51:57.185Z,66.44
2023-04-27T06:54:29.296Z,68.00
2023-04-27T06:57:02.044Z,68.66
2023-04-27T06:59:34.560Z,63.28
2023-04-27T07:02:08.783Z,66.38
2023-04-27T07:04:40.922Z,64.75
2023-04-27T07:07:13.609Z,62.05
2023-04-27T07:09:45.577Z,63.84
2023-04-27T07:12:17.935Z,62.51
2023-04-27T07:14:51.300Z,57.71
2023-04-27T07:17:23.544Z,59.43
2023-04-27T07:19:55.642Z,61.49
2023-04-27T07:22:30.198Z,62.14
2023-04-27T07:25:02.773Z,61.36
2023-04-27T07:27:36.021Z,61.99
2023-04-27T07:30:10.668Z,61.36
2023-04-27T07:32:43.108Z,62.04
2023-04-27T07:35:15.349Z,60.56
2023-04-27T07:37:47.611Z,61.42
2023-04-27T07:40:19.838Z,64.85
2023-04-27T07:42:52.551Z,61.23
2023-04-27T07:45:32.034Z,58.68
2023-04-27T07:48:04.909Z,60.73
2023-04-27T07:50:37.098Z,61.23
2023-04-27T07:53:09.347Z,62.81
2023-04-27T07:55:41.723Z,61.74
2023-04-27T07:58:14.171Z,60.93
2023-04-27T08:00:46.552Z,62.36
2023-04-27T08:03:19.193Z,59.79
2023-04-27T08:05:51.970Z,59.54
2023-04-27T08:08:24.455Z,59.04
2023-04-27T08:10:56.709Z,58.82
2023-04-27T08:13:28.852Z,59.13
2023-04-27T08:16:00.853Z,61.69
2023-04-27T08:18:33.062Z,60.24
2023-04-27T08:21:05.781Z,57.85
2023-04-27T08:23:39.102Z,56.56
2023-04-27T08:26:15.104Z,56.96
2023-04-27T08:28:47.614Z,59.14
2023-04-27T08:31:20.243Z,61.07
2023-04-27T08:33:52.755Z,62.36
2023-04-27T08:36:27.307Z,63.46
2023-04-27T08:38:59.649Z,61.73
2023-04-27T08:41:31.853Z,60.02
2023-04-27T08:44:04.176Z,58.93
2023-04-27T08:46:36.583Z,60.97
2023-04-27T08:49:08.799Z,61.03
2023-04-27T08:51:40.868Z,59.35
2023-04-27T08:54:13.496Z,60.08
2023-04-27T08:56:45.719Z,62.69
2023-04-27T08:59:19.049Z,63.66
2023-04-27T09:01:51.944Z,61.26
2023-04-27T09:04:24.465Z,60.92
2023-04-27T09:06:56.746Z,61.14
2023-04-27T09:09:28.728Z,59.61
2023-04-27T09:12:00.795Z,60.23
2023-04-27T09:14:36.260Z,61.68
2023-04-27T09:17:08.837Z,59.26
2023-04-27T09:19:41.892Z,58.77
2023-04-27T09:22:15.835Z,59.83
2023-04-27T09:24:55.292Z,58.39
2023-04-27T09:27:27.435Z,57.72
2023-04-27T09:29:59.540Z,57.70
2023-04-27T09:32:31.570Z,58.01
2023-04-27T09:35:05.494Z,58.41
2023-04-27T09:37:37.631Z,59.38
2023-04-27T09:40:12.445Z,60.47
2023-04-27T09:42:44.970Z,58.63
2023-04-27T09:45:17.810Z,59.98
2023-04-27T09:47:50.139Z,59.40
2023-04-27T09:50:24.251Z,59.73
2023-04-27T09:52:57.483Z,61.96
2023-04-27T09:55:33.419Z,60.00
2023-04-27T09:58:22.347Z,55.06
2023-04-27T10:01:06.602Z,57.38
2023-04-27T10:03:45.086Z,57.57
2023-04-27T10:06:53.706Z,56.21
2023-04-27T10:09:27.176Z,58.04
2023-04-27T10:12:15.113Z,57.88
2023-04-27T10:14:57.368Z,56.32
2023-04-27T10:17:33.343Z,54.05
2023-04-27T10:20:07.632Z,54.79
2023-04-27T10:22:45.280Z,52.74
2023-04-27T10:25:24.868Z,55.10
2023-04-27T10:27:59.917Z,52.82
2023-04-27T10:30:39.137Z,53.55
2023-04-27T10:33:13.240Z,53.60
2023-04-27T10:35:46.808Z,53.41
2023-04-27T10:38:23.853Z,55.02
2023-04-27T10:41:01.871Z,57.40
2023-04-27T10:43:36.537Z,59.58
2023-04-27T10:46:16.680Z,55.61
2023-04-27T10:48:49.499Z,55.87
2023-04-27T10:51:22.229Z,55.89
2023-04-27T10:53:57.029Z,55.94
2023-04-27T10:56:29.012Z,55.02
2023-04-27T10:59:05.809Z,56.92
2023-04-27T11:01:38.490Z,54.35
2023-04-27T11:04:10.771Z,53.97
2023-04-27T11:06:50.594Z,54.98
2023-04-27T11:09:30.658Z,52.89
2023-04-27T11:12:03.058Z,55.94
2023-04-27T11:14:35.743Z,53.23
2023-04-27T11:17:09.463Z,52.32
2023-04-27T11:19:49.860Z,52.83
2023-04-27T11:22:22.023Z,52.93
2023-04-27T11:24:55.015Z,53.73
2023-04-27T11:27:37.709Z,54.42
2023-04-27T11:30:22.806Z,51.48
2023-04-27T11:32:55.329Z,52.14
2023-04-27T11:35:37.704Z,53.18
2023-04-27T11:38:17.279Z,52.85
2023-04-27T11:41:02.627Z,50.28
2023-04-27T11:43:38.751Z,50.81
2023-04-27T11:46:12.526Z,52.19
2023-04-27T11:48:44.680Z,53.99
2023-04-27T11:51:16.953Z,53.32
2023-04-27T11:53:52.560Z,52.24
2023-04-27T11:56:26.159Z,54.94
2023-04-27T11:58:58.289Z,55.69
2023-04-27T12:01:37.731Z,55.60
2023-04-27T12:04:11.114Z,53.73
2023-04-27T12:06:43.578Z,49.05
2023-04-27T12:09:15.629Z,50.64
2023-04-27T12:11:48.033Z,52.40
2023-04-27T12:14:20.458Z,53.32
2023-04-27T12:16:55.489Z,50.92
2023-04-27T12:19:27.746Z,49.40
2023-04-27T12:22:00.828Z,49.80
2023-04-27T12:24:32.957Z,50.47
2023-04-27T12:27:05.499Z,49.90
2023-04-27T12:29:38.436Z,51.26
2023-04-27T12:32:11.104Z,49.17
2023-04-27T12:34:43.498Z,52.40
2023-04-27T12:37:15.458Z,51.50
2023-04-27T12:39:47.628Z,49.40
2023-04-27T12:42:24.289Z,52.15
2023-04-27T12:44:57.277Z,47.70
2023-04-27T12:47:49.684Z,46.53
2023-04-27T12:50:21.981Z,46.84
2023-04-27T12:52:54.167Z,48.54
2023-04-27T12:55:33.754Z,49.69
2023-04-27T12:58:07.797Z,47.18
2023-04-27T13:00:40.082Z,50.11
2023-04-27T13:03:12.363Z,48.45
2023-04-27T13:05:46.661Z,49.54
2023-04-27T13:08:19.236Z,49.55
2023-04-27T13:10:54.165Z,48.96
2023-04-27T13:13:26.751Z,52.33
2023-04-27T13:15:59.330Z,55.52
2023-04-27T13:18:34.880Z,54.09
2023-04-27T13:21:09.522Z,52.95
2023-04-27T13:23:41.681Z,54.58
2023-04-27T13:26:14.121Z,54.46
2023-04-27T13:28:46.514Z,55.39
2023-04-27T13:31:18.818Z,53.11
2023-04-27T13:33:51.345Z,52.74
2023-04-27T13:36:23.498Z,50.88
2023-04-27T13:38:56.153Z,51.99
2023-04-27T13:41:30.629Z,53.30
2023-04-27T13:44:02.950Z,53.72
2023-04-27T13:46:35.201Z,51.78
2023-04-27T13:49:07.304Z,53.17
2023-04-27T13:51:40.784Z,54.70
2023-04-27T13:54:13.518Z,53.50
2023-04-27T13:56:46.266Z,54.90
2023-04-27T13:59:18.434Z,54.47
2023-04-27T14:01:52.329Z,54.80
2023-04-27T14:04:24.522Z,56.68
2023-04-27T14:07:08.661Z,55.75
2023-04-27T14:09:40.796Z,58.37
2023-04-27T14:12:15.745Z,57.62
2023-04-27T14:14:48.405Z,60.16
2023-04-27T14:17:22.618Z,61.32
2023-04-27T14:19:55.027Z,60.84
2023-04-27T14:22:27.583Z,60.92
2023-04-27T14:25:00.002Z,60.21
2023-04-27T14:27:32.241Z,59.46
2023-04-27T14:30:06.325Z,59.01
2023-04-27T14:32:38.283Z,60.12
2023-04-27T14:35:11.332Z,59.20
2023-04-27T14:37:43.579Z,58.00
2023-04-27T14:40:16.386Z,57.12
2023-04-27T14:42:48.481Z,57.33
2023-04-27T14:45:21.700Z,57.97
2023-04-27T14:47:56.332Z,57.08
2023-04-27T14:50:29.265Z,58.07
2023-04-27T14:53:01.419Z,58.50
2023-04-27T14:55:33.603Z,58.22
2023-04-27T14:58:06.104Z,58.17
2023-04-27T15:00:38.270Z,57.27
2023-04-27T15:03:10.753Z,59.43
2023-04-27T15:05:43.264Z,58.53
2023-04-27T15:08:15.454Z,59.19
2023-04-27T15:10:47.589Z,59.09
2023-04-27T15:13:20.196Z,61.70
2023-04-27T15:15:54.744Z,63.29
2023-04-27T15:18:28.814Z,63.65
2023-04-27T15:21:01.471Z,64.16
2023-04-27T15:23:35.218Z,63.46
2023-04-27T15:26:07.678Z,64.73
2023-04-27T15:28:40.498Z,65.01
2023-04-27T15:31:12.936Z,63.37
2023-04-27T15:33:45.375Z,64.54
2023-04-27T15:36:17.758Z,64.09
2023-04-27T15:38:52.724Z,66.76
2023-04-27T15:41:30.985Z,69.57
2023-04-27T15:44:03.097Z,68.14
2023-04-27T15:46:35.174Z,68.73
2023-04-27T15:49:07.506Z,67.02
2023-04-27T15:51:39.596Z,66.58
2023-04-27T15:54:11.837Z,68.37
2023-04-27T15:56:43.957Z,70.80
2023-04-27T15:59:16.219Z,68.68
2023-04-27T16:01:48.635Z,68.89
2023-04-27T16:04:20.638Z,67.44
2023-04-27T16:06:52.912Z,67.75
2023-04-27T16:09:26.239Z,66.91
2023-04-27T16:11:56.894Z,68.08
2023-04-27T16:14:29.281Z,67.26
2023-04-27T16:17:04.479Z,66.32
2023-04-27T16:19:37.267Z,66.35
2023-04-27T16:22:09.434Z,66.08
2023-04-27T16:24:42.733Z,65.50
2023-04-27T16:27:15.355Z,64.47
2023-04-27T16:29:47.624Z,66.33
2023-04-27T16:32:20.828Z,63.69
2023-04-27T16:34:53.817Z,64.60
2023-04-27T16:37:27.526Z,64.17
2023-04-27T16:40:01.901Z,62.70
2023-04-27T16:42:34.354Z,63.90
2023-04-27T16:45:10.860Z,65.31
2023-04-27T16:47:43.341Z,66.97
2023-04-27T16:50:17.392Z,68.82
2023-04-27T16:52:50.976Z,69.09
2023-04-27T16:55:21.625Z,68.57
2023-04-27T16:57:54.110Z,66.79
2023-04-27T17:00:26.533Z,66.78
2023-04-27T17:03:00.773Z,65.61
2023-04-27T17:05:34.107Z,66.65
2023-04-27T17:08:06.560Z,66.30
2023-04-27T17:10:38.619Z,65.88
2023-04-27T17:13:12.606Z,65.00
2023-04-27T17:15:48.474Z,65.72
2023-04-27T17:18:21.383Z,65.67
2023-04-27T17:20:53.567Z,65.86
2023-04-27T17:23:25.751Z,66.80
2023-04-27T17:25:57.715Z,67.64
2023-04-27T17:28:30.401Z,69.29
2023-04-27T17:31:03.065Z,69.59
2023-04-27T17:33:35.114Z,68.96
2023-04-27T17:36:07.699Z,74.11
2023-04-27T17:38:40.686Z,77.19
2023-04-27T17:41:13.414Z,79.08
2023-04-27T17:43:49.174Z,80.29
2023-04-27T17:46:26.313Z,80.32
2023-04-27T17:49:02.470Z,78.28
2023-04-27T17:51:37.901Z,81.94
2023-04-27T17:54:12.722Z,85.05
2023-04-27T17:56:45.776Z,88.57
2023-04-27T17:59:18.849Z,94.13
2023-04-27T18:01:52.637Z,94.95
2023-04-27T18:04:25.901Z,96.66
2023-04-27T18:07:02.662Z,97.07
2023-04-27T18:09:35.658Z,98.29
2023-04-27T18:12:12.038Z,99.73
2023-04-27T18:14:47.489Z,94.87
2023-04-27T18:17:25.365Z,91.94
2023-04-27T18:20:08.145Z,92.44
2023-04-27T18:22:48.932Z,96.86
2023-04-27T18:25:27.660Z,94.28
2023-04-27T18:28:10.728Z,93.74
2023-04-27T18:30:45.630Z,92.66
2023-04-27T18:33:23.550Z,90.63
2023-04-27T18:35:56.307Z,90.75
2023-04-27T18:38:29.366Z,90.10
2023-04-27T18:41:04.741Z,90.05
2023-04-27T18:43:39.130Z,91.05
2023-04-27T18:46:13.769Z,90.83
2023-04-27T18:48:48.147Z,90.77
2023-04-27T18:51:21.225Z,90.13
2023-04-27T18:53:55.175Z,90.24
2023-04-27T18:56:28.220Z,90.97
2023-04-27T18:59:01.023Z,90.54
2023-04-27T19:01:33.776Z,91.22
2023-04-27T19:04:07.520Z,92.66
2023-04-27T19:06:39.793Z,94.48
2023-04-27T19:09:12.093Z,93.96
2023-04-27T19:11:49.359Z,94.17
2023-04-27T19:14:25.047Z,95.92
2023-04-27T19:17:08.196Z,96.13
2023-04-27T19:19:52.208Z,96.28
2023-04-27T19:22:40.303Z,97.58
2023-04-27T19:25:13.668Z,99.95
2023-04-27T19:27:47.801Z,98.67
2023-04-27T19:30:20.337Z,99.22
2023-04-27T19:32:52.687Z,98.88
2023-04-27T19:35:26.748Z,98.47
2023-04-27T19:37:58.861Z,96.98
2023-04-27T19:40:30.919Z,97.70
2023-04-27T19:43:04.546Z,97.39
2023-04-27T19:45:35.471Z,96.92
2023-04-27T19:48:08.142Z,97.03
2023-04-27T19:50:44.299Z,96.94
2023-04-27T19:53:16.476Z,97.54
2023-04-27T19:55:48.666Z,97.70
2023-04-27T19:58:20.723Z,98.39
2023-04-27T20:00:52.819Z,97.97
2023-04-27T20:03:25.171Z,98.79
2023-04-27T20:05:57.663Z,99.59
2023-04-27T20:08:33.077Z,99.80
2023-04-27T20:11:05.682Z,99.56
2023-04-27T20:13:37.744Z,99.42
2023-04-27T20:16:10.173Z,99.92
2023-04-27T20:18:44.897Z,99.85
2023-04-27T20:21:16.877Z,98.99
2023-04-27T20:23:51.895Z,98.17
2023-04-27T20:26:24.785Z,98.59
2023-04-27T20:28:57.707Z,99.37
2023-04-27T20:31:29.915Z,100.00
2023-04-27T20:34:03.677Z,100.00
2023-04-27T20:36:37.390Z,100.00
2023-04-27T20:39:10.647Z,100.00
2023-04-27T20:41:44.946Z,99.94
2023-04-27T20:44:17.286Z,99.30
2023-04-27T20:46:51.652Z,99.87
2023-04-27T20:49:34.214Z,99.88
2023-04-27T20:52:07.749Z,100.00
2023-04-27T20:54:40.093Z,100.00
2023-04-27T20:57:14.480Z,100.00
2023-04-27T20:59:46.542Z,100.00
2023-04-27T21:02:18.995Z,100.00
2023-04-27T21:04:51.440Z,100.00
2023-04-27T21:07:23.451Z,100.00
2023-04-27T21:09:55.626Z,100.00
2023-04-27T21:12:28.087Z,100.00
2023-04-27T21:15:00.779Z,100.00
2023-04-27T21:17:33.556Z,100.00
2023-04-27T21:20:06.028Z,100.00
2023-04-27T21:22:38.289Z,100.00
2023-04-27T21:25:11.272Z,100.00
2023-04-27T21:27:43.300Z,100.00
2023-04-27T21:30:16.057Z,100.00
2023-04-27T21:32:48.427Z,100.00
2023-04-27T21:35:20.676Z,100.00
2023-04-27T21:37:52.763Z,100.00
2023-04-27T21:40:25.018Z,100.00
2023-04-27T21:42:57.373Z,100.00
2023-04-27T21:45:29.586Z,100.00
2023-04-27T21:48:02.772Z,100.00
2023-04-27T21:50:36.652Z,100.00
2023-04-27T21:53:09.444Z,100.00
2023-04-27T21:55:41.894Z,100.00
2023-04-27T21:58:13.942Z,100.00
2023-04-27T22:00:46.006Z,100.00
2023-04-27T22:03:18.230Z,100.00
2023-04-27T22:05:51.327Z,100.00
2023-04-27T22:08:23.700Z,100.00
2023-04-27T22:10:56.167Z,100.00
2023-04-27T22:13:28.249Z,100.00
2023-04-27T22:16:00.482Z,100.00
2023-04-27T22:18:32.828Z,100.00
2023-04-27T22:21:04.861Z,100.00
2023-04-27T22:23:36.972Z,100.00
2023-04-27T22:26:09.315Z,100.00
2023-04-27T22:28:42.546Z,100.00
2023-04-27T22:31:15.035Z,100.00
2023-04-27T22:33:47.009Z,100.00
2023-04-27T22:36:19.788Z,100.00
2023-04-27T22:38:53.295Z,100.00
2023-04-27T22:41:25.329Z,100.00
2023-04-27T22:43:58.047Z,100.00
2023-04-27T22:46:30.112Z,100.00
2023-04-27T22:49:03.476Z,100.00
2023-04-27T22:51:36.810Z,100.00
2023-04-27T22:54:09.045Z,100.00
2023-04-27T22:56:41.584Z,100.00
2023-04-27T22:59:13.633Z,100.00
2023-04-27T23:01:46.395Z,100.00
2023-04-27T23:04:19.580Z,100.00
2023-04-27T23:06:54.402Z,100.00
2023-04-27T23:09:27.263Z,100.00
2023-04-27T23:12:01.391Z,100.00
2023-04-27T23:14:33.723Z,100.00
2023-04-27T23:17:07.823Z,100.00
2023-04-27T23:19:40.921Z,100.00
2023-04-27T23:22:13.124Z,100.00
2023-04-27T23:24:45.272Z,100.00
2023-04-27T23:27:17.395Z,100.00
2023-04-27T23:29:49.431Z,100.00
2023-04-27T23:32:21.768Z,100.00
2023-04-27T23:34:56.203Z,100.00
2023-04-27T23:37:29.158Z,100.00
2023-04-27T23:40:01.332Z,100.00
2023-04-27T23:42:33.498Z,100.00
2023-04-27T23:45:05.889Z,100.00
2023-04-27T23:47:38.349Z,100.00
2023-04-27T23:50:12.021Z,100.00
2023-04-27T23:52:42.302Z,100.00
2023-04-27T23:55:16.349Z,100.00
2023-04-27T23:57:48.597Z,100.00
